Hinton, United Kingdom
Current Conditions -  °F | °C
As of 4:50 AM on Sunday 21 Dec 2014 (Local Time) from EGGD Reporting Station
Drizzle Drizzle  
Wind Chill: 37°   Ceiling: 400
Heat Index: 43°   Visibility: 1.4mi
Dew Point: 43°   Wind: 12mph
Humidity: 100%   Direction: 240°WSW
Pressure: 30.39"   Gusts: NA
Location:  51.49°N, 2.38°W
Report Text: EGGD 210450Z 24010KT 2300 DZ OVC004 06/06 Q1029
Loading
Personal Weather Stations






























Interactive Weather Map New forecast layout! Learn more

10-Day Weather Forecast

Advertisements
Track Severe Weather on mobile